Alboran — EAWK — position and weather

sailwx.info

Track history (hours):
 
Tides and Currents Weather Stations Pressure Air Temp Water Temp Dewpoint Dewpoint Depression Visibility Wind Speed Wind Dir Waves Ship Positions

Alboran

Last reported at 2017-Sep-21 04:00 UTC. Time now 2017-Sep-22 17:24 UTC.
Position N 36°08' W 005°26'.

Length 96 m; draft 3.8 m.

Type: High speed craft. MMSI: 224898000.

Date/timePositionNaut miles runAvg speedWind from/ knotsBaromVisibWave heightAir tempDewpointWater temp
2017-Sep-21 04:00N 36°08' W 005°26'0 0.0
2017-Sep-21 03:14N 36°08' W 005°26'0 0.0
2017-Sep-20 23:25N 36°08' W 005°26'2 3.8
2017-Sep-20 22:57N 36°09' W 005°24'4 8.5
2017-Sep-20 22:30N 36°05' W 005°23'13 4.3
2017-Sep-20 19:31N 35°54' W 005°31'3 8.8
2017-Sep-20 19:13N 35°56' W 005°30'419.1
2017-Sep-20 19:00N 35°59' W 005°27'5 2.5
2017-Sep-20 16:51N 36°04' W 005°24'721.2
2017-Sep-20 16:30N 35°57' W 005°27'2 0.7
2017-Sep-20 13:20N 35°56' W 005°30'10 3.3
2017-Sep-20 10:28N 36°05' W 005°24'10 2.9
2017-Sep-20 07:10N 35°56' W 005°29'419.1
2017-Sep-20 06:57N 35°60' W 005°27'8 5.7
2017-Sep-20 05:33N 36°08' W 005°26'0 2.9
2017-Sep-20 05:30N 36°08' W 005°26'1 0.1
2017-Sep-19 22:16N 36°09' W 005°26'415.9
2017-Sep-19 22:00N 36°05' W 005°23'14 5.2
2017-Sep-19 19:21N 35°53' W 005°31'3 8.0
2017-Sep-19 18:58N 35°56' W 005°30'920.0
2017-Sep-19 18:30N 36°04' W 005°24'4 8.3
2017-Sep-19 17:58N 36°08' W 005°26'0 0.0
2017-Sep-19 17:30N 36°08' W 005°26'0 0.0
2017-Sep-19 16:35N 36°08' W 005°26'0 0.1
2017-Sep-19 16:29N 36°08' W 005°26'2 3.3
2017-Sep-19 15:59N 36°08' W 005°24'1021.9
2017-Sep-19 15:31N 35°58' W 005°27'3 1.3
2017-Sep-19 13:14N 35°56' W 005°30'520.5
2017-Sep-19 13:00N 36°00' W 005°26'8 4.3
2017-Sep-19 11:10N 36°08' W 005°26'4 9.2
2017-Sep-19 10:46N 36°05' W 005°23'623.2
2017-Sep-19 10:31N 35°59' W 005°25'5 1.3
2017-Sep-19 06:55N 35°56' W 005°30'11 1.3
2017-Sep-18 22:25N 36°06' W 005°23'923.3
2017-Sep-18 22:01N 35°57' W 005°28'2 0.6
2017-Sep-18 19:02N 35°56' W 005°30'120.8
2017-Sep-18 19:00N 35°57' W 005°29'9 3.7
2017-Sep-18 16:30N 36°04' W 005°23'10 2.8
2017-Sep-18 12:59N 35°56' W 005°30'9 3.1
2017-Sep-18 09:57N 36°04' W 005°23'5 0.4
2017-Sep-17 22:50N 36°08' W 005°26'410.4
2017-Sep-17 22:29N 36°05' W 005°23'10 2.9
2017-Sep-17 19:00N 35°56' W 005°30'1319.7
2017-Sep-17 18:21N 36°08' W 005°24'1 0.8
2017-Sep-17 16:23N 36°08' W 005°26'2 4.8
2017-Sep-17 16:00N 36°07' W 005°24'1224.0
2017-Sep-17 15:31N 35°56' W 005°29'1 0.5
2017-Sep-17 13:30N 35°56' W 005°30'1018.3
2017-Sep-17 12:57N 36°05' W 005°24'4 1.4
2017-Sep-17 10:12N 36°01' W 005°24'423.4
2017-Sep-17 10:00N 35°57' W 005°27'3 1.3
2017-Sep-17 07:45N 35°57' W 005°31'11 1.4
2017-Sep-16 23:57N 36°06' W 005°24'1021.9
2017-Sep-16 23:31N 35°57' W 005°27'5 1.3
2017-Sep-16 19:51N 35°54' W 005°32'0 0.4
2017-Sep-16 19:26N 35°54' W 005°31'817.8
2017-Sep-16 19:01N 36°00' W 005°26'8 3.3
2017-Sep-16 16:25N 36°09' W 005°26'717.3
2017-Sep-16 16:01N 36°02' W 005°24'7 2.7
2017-Sep-16 13:20N 35°56' W 005°30'618.1
2017-Sep-16 13:00N 36°01' W 005°26'712.5
2017-Sep-16 12:26N 36°08' W 005°26'4 1.6
2017-Sep-16 09:59N 36°05' W 005°23'10 3.4
2017-Sep-16 07:04N 35°56' W 005°30'221.2
2017-Sep-16 06:59N 35°58' W 005°29'6 0.7
2017-Sep-15 22:16N 36°02' W 005°24'622.3
2017-Sep-15 22:00N 35°57' W 005°27'2 0.9
2017-Sep-15 19:26N 35°56' W 005°30'10 4.5
2017-Sep-15 17:17N 36°04' W 005°23'622.6
2017-Sep-15 17:00N 35°58' W 005°25'4 1.2
2017-Sep-15 13:27N 35°56' W 005°30'10 3.2
2017-Sep-15 10:28N 36°04' W 005°23'10 2.8
2017-Sep-15 07:04N 35°56' W 005°30'10 1.1
2017-Sep-14 22:00N 36°05' W 005°24'4 1.2
2017-Sep-14 18:18N 36°09' W 005°25'1 0.8
2017-Sep-14 16:47N 36°08' W 005°26'5 8.4
2017-Sep-14 16:15N 36°04' W 005°23'623.8
2017-Sep-14 16:00N 35°59' W 005°25'4 1.5
2017-Sep-14 13:09N 35°56' W 005°30'423.3
2017-Sep-14 13:00N 35°59' W 005°27'4 1.5
2017-Sep-14 10:05N 36°03' W 005°24'224.0
2017-Sep-14 10:00N 36°01' W 005°25'6 2.2
2017-Sep-14 07:07N 35°56' W 005°30'12 3.7
2017-Sep-14 03:52N 36°08' W 005°26'0 0.0
2017-Sep-14 03:30N 36°08' W 005°26'0 0.0
2017-Sep-14 03:01N 36°08' W 005°26'0 0.0
2017-Sep-13 22:45N 36°08' W 005°26'2 7.8
2017-Sep-13 22:27N 36°07' W 005°24'1021.8
2017-Sep-13 22:01N 35°57' W 005°27'3 1.0
2017-Sep-13 19:13N 35°56' W 005°30'720.4
2017-Sep-13 18:53N 36°02' W 005°25'3 1.4
2017-Sep-13 16:34N 36°05' W 005°24'421.3
2017-Sep-13 16:22N 36°00' W 005°25'6 2.4
2017-Sep-13 13:53N 35°56' W 005°30'10 2.8
2017-Sep-13 10:24N 36°04' W 005°23'923.1
2017-Sep-13 10:00N 35°56' W 005°28'2 0.7
2017-Sep-13 07:22N 35°56' W 005°31'12 4.3
2017-Sep-13 04:34N 36°08' W 005°26'0 0.0
2017-Sep-13 04:30N 36°08' W 005°26'0 0.0
2017-Sep-13 04:00N 36°08' W 005°26'0 0.0
2017-Sep-13 03:24N 36°08' W 005°26'0 0.0
2017-Sep-13 02:57N 36°08' W 005°26'0 0.0
2017-Sep-13 01:25N 36°08' W 005°26'0 0.0
2017-Sep-13 00:54N 36°08' W 005°26'0 0.0
2017-Sep-13 00:30N 36°08' W 005°26'0 0.0
2017-Sep-13 00:00N 36°08' W 005°26'0 0.0
2017-Sep-12 23:30N 36°08' W 005°26'0 0.0
2017-Sep-12 22:49N 36°08' W 005°26'3 6.3
2017-Sep-12 22:18N 36°05' W 005°24'621.5
2017-Sep-12 22:01N 35°59' W 005°25'5 1.8
2017-Sep-12 19:18N 35°56' W 005°30'1019.7
2017-Sep-12 18:47N 36°05' W 005°24'414.4
2017-Sep-12 18:30N 36°09' W 005°26'1 1.1
2017-Sep-12 17:50N 36°08' W 005°26'0 0.0
2017-Sep-12 17:31N 36°08' W 005°26'0 0.1
2017-Sep-12 16:20N 36°08' W 005°26'2 7.2
2017-Sep-12 16:01N 36°07' W 005°24'11 4.1
2017-Sep-12 13:14N 35°56' W 005°30'519.7
2017-Sep-12 13:00N 35°60' W 005°26'9 3.2
2017-Sep-12 10:11N 36°09' W 005°25'317.5
2017-Sep-12 10:00N 36°06' W 005°23'11 3.7
2017-Sep-12 07:00N 35°56' W 005°30'1020.8
2017-Sep-12 06:31N 36°05' W 005°24'4 4.4
2017-Sep-12 05:41N 36°08' W 005°26'0 0.0
2017-Sep-12 05:06N 36°08' W 005°26'0 0.1
2017-Sep-12 05:00N 36°08' W 005°26'0 0.0
2017-Sep-12 04:30N 36°08' W 005°26'0 0.0
2017-Sep-12 03:57N 36°08' W 005°26'0 0.0
2017-Sep-12 03:30N 36°08' W 005°26'0 0.0
2017-Sep-12 03:00N 36°08' W 005°26'0 0.0
2017-Sep-12 02:30N 36°08' W 005°26'0 0.1
2017-Sep-12 02:00N 36°08' W 005°26'611.5
2017-Sep-12 01:31N 36°02' W 005°24'11 3.5
2017-Sep-11 22:24N 35°53' W 005°31'3 6.6
2017-Sep-11 21:58N 35°56' W 005°30'919.5
2017-Sep-11 21:30N 36°04' W 005°24'4 8.8
2017-Sep-11 21:00N 36°08' W 005°26'0 0.0
2017-Sep-11 20:30N 36°08' W 005°26'0 0.0
2017-Sep-11 20:00N 36°08' W 005°26'0 0.1
2017-Sep-11 19:28N 36°08' W 005°26'5 9.7
2017-Sep-11 19:01N 36°04' W 005°23'9 3.6
2017-Sep-11 16:27N 35°56' W 005°30'1022.0
2017-Sep-11 15:59N 36°05' W 005°24'4 3.5
2017-Sep-11 14:58N 36°08' W 005°26'0 0.3
2017-Sep-11 14:28N 36°08' W 005°26'816.5
2017-Sep-11 14:01N 36°05' W 005°17'  
Track history (hours):
 
Tides and Currents Weather Stations Pressure Air Temp Water Temp Dewpoint Dewpoint Depression Visibility Wind Speed Wind Dir Waves Ship Positions

Alboran

Last reported at 2017-Sep-21 04:00 UTC. Time now 2017-Sep-22 17:24 UTC.
Position N 36°08' W 005°26'.

Length 96 m; draft 3.8 m.

Type: High speed craft. MMSI: 224898000.

Date/timePositionNaut miles runAvg speedWind from/ knotsBaromVisibWave heightAir tempDewpointWater temp
2017-Sep-21 04:00N 36°08' W 005°26'0 0.0
2017-Sep-21 03:14N 36°08' W 005°26'0 0.0
2017-Sep-20 23:25N 36°08' W 005°26'2 3.8
2017-Sep-20 22:57N 36°09' W 005°24'4 8.5
2017-Sep-20 22:30N 36°05' W 005°23'13 4.3
2017-Sep-20 19:31N 35°54' W 005°31'3 8.8
2017-Sep-20 19:13N 35°56' W 005°30'419.1
2017-Sep-20 19:00N 35°59' W 005°27'5 2.5
2017-Sep-20 16:51N 36°04' W 005°24'721.2
2017-Sep-20 16:30N 35°57' W 005°27'2 0.7
2017-Sep-20 13:20N 35°56' W 005°30'10 3.3
2017-Sep-20 10:28N 36°05' W 005°24'10 2.9
2017-Sep-20 07:10N 35°56' W 005°29'419.1
2017-Sep-20 06:57N 35°60' W 005°27'8 5.7
2017-Sep-20 05:33N 36°08' W 005°26'0 2.9
2017-Sep-20 05:30N 36°08' W 005°26'1 0.1
2017-Sep-19 22:16N 36°09' W 005°26'415.9
2017-Sep-19 22:00N 36°05' W 005°23'14 5.2
2017-Sep-19 19:21N 35°53' W 005°31'3 8.0
2017-Sep-19 18:58N 35°56' W 005°30'920.0
2017-Sep-19 18:30N 36°04' W 005°24'4 8.3
2017-Sep-19 17:58N 36°08' W 005°26'0 0.0
2017-Sep-19 17:30N 36°08' W 005°26'0 0.0
2017-Sep-19 16:35N 36°08' W 005°26'0 0.1
2017-Sep-19 16:29N 36°08' W 005°26'2 3.3
2017-Sep-19 15:59N 36°08' W 005°24'1021.9
2017-Sep-19 15:31N 35°58' W 005°27'3 1.3
2017-Sep-19 13:14N 35°56' W 005°30'520.5
2017-Sep-19 13:00N 36°00' W 005°26'8 4.3
2017-Sep-19 11:10N 36°08' W 005°26'4 9.2
2017-Sep-19 10:46N 36°05' W 005°23'623.2
2017-Sep-19 10:31N 35°59' W 005°25'5 1.3
2017-Sep-19 06:55N 35°56' W 005°30'11 1.3
2017-Sep-18 22:25N 36°06' W 005°23'923.3
2017-Sep-18 22:01N 35°57' W 005°28'2 0.6
2017-Sep-18 19:02N 35°56' W 005°30'120.8
2017-Sep-18 19:00N 35°57' W 005°29'9 3.7
2017-Sep-18 16:30N 36°04' W 005°23'10 2.8
2017-Sep-18 12:59N 35°56' W 005°30'9 3.1
2017-Sep-18 09:57N 36°04' W 005°23'5 0.4
2017-Sep-17 22:50N 36°08' W 005°26'410.4
2017-Sep-17 22:29N 36°05' W 005°23'10 2.9
2017-Sep-17 19:00N 35°56' W 005°30'1319.7
2017-Sep-17 18:21N 36°08' W 005°24'1 0.8
2017-Sep-17 16:23N 36°08' W 005°26'2 4.8
2017-Sep-17 16:00N 36°07' W 005°24'1224.0
2017-Sep-17 15:31N 35°56' W 005°29'1 0.5
2017-Sep-17 13:30N 35°56' W 005°30'1018.3
2017-Sep-17 12:57N 36°05' W 005°24'4 1.4
2017-Sep-17 10:12N 36°01' W 005°24'423.4
2017-Sep-17 10:00N 35°57' W 005°27'3 1.3
2017-Sep-17 07:45N 35°57' W 005°31'11 1.4
2017-Sep-16 23:57N 36°06' W 005°24'1021.9
2017-Sep-16 23:31N 35°57' W 005°27'5 1.3
2017-Sep-16 19:51N 35°54' W 005°32'0 0.4
2017-Sep-16 19:26N 35°54' W 005°31'817.8
2017-Sep-16 19:01N 36°00' W 005°26'8 3.3
2017-Sep-16 16:25N 36°09' W 005°26'717.3
2017-Sep-16 16:01N 36°02' W 005°24'7 2.7
2017-Sep-16 13:20N 35°56' W 005°30'618.1
2017-Sep-16 13:00N 36°01' W 005°26'712.5
2017-Sep-16 12:26N 36°08' W 005°26'4 1.6
2017-Sep-16 09:59N 36°05' W 005°23'10 3.4
2017-Sep-16 07:04N 35°56' W 005°30'221.2
2017-Sep-16 06:59N 35°58' W 005°29'6 0.7
2017-Sep-15 22:16N 36°02' W 005°24'622.3
2017-Sep-15 22:00N 35°57' W 005°27'2 0.9
2017-Sep-15 19:26N 35°56' W 005°30'10 4.5
2017-Sep-15 17:17N 36°04' W 005°23'622.6
2017-Sep-15 17:00N 35°58' W 005°25'4 1.2
2017-Sep-15 13:27N 35°56' W 005°30'10 3.2
2017-Sep-15 10:28N 36°04' W 005°23'10 2.8
2017-Sep-15 07:04N 35°56' W 005°30'10 1.1
2017-Sep-14 22:00N 36°05' W 005°24'4 1.2
2017-Sep-14 18:18N 36°09' W 005°25'1 0.8
2017-Sep-14 16:47N 36°08' W 005°26'5 8.4
2017-Sep-14 16:15N 36°04' W 005°23'623.8
2017-Sep-14 16:00N 35°59' W 005°25'4 1.5
2017-Sep-14 13:09N 35°56' W 005°30'423.3
2017-Sep-14 13:00N 35°59' W 005°27'4 1.5
2017-Sep-14 10:05N 36°03' W 005°24'224.0
2017-Sep-14 10:00N 36°01' W 005°25'6 2.2
2017-Sep-14 07:07N 35°56' W 005°30'12 3.7
2017-Sep-14 03:52N 36°08' W 005°26'0 0.0
2017-Sep-14 03:30N 36°08' W 005°26'0 0.0
2017-Sep-14 03:01N 36°08' W 005°26'0 0.0
2017-Sep-13 22:45N 36°08' W 005°26'2 7.8
2017-Sep-13 22:27N 36°07' W 005°24'1021.8
2017-Sep-13 22:01N 35°57' W 005°27'3 1.0
2017-Sep-13 19:13N 35°56' W 005°30'720.4
2017-Sep-13 18:53N 36°02' W 005°25'3 1.4
2017-Sep-13 16:34N 36°05' W 005°24'421.3
2017-Sep-13 16:22N 36°00' W 005°25'6 2.4
2017-Sep-13 13:53N 35°56' W 005°30'10 2.8
2017-Sep-13 10:24N 36°04' W 005°23'923.1
2017-Sep-13 10:00N 35°56' W 005°28'2 0.7
2017-Sep-13 07:22N 35°56' W 005°31'12 4.3
2017-Sep-13 04:34N 36°08' W 005°26'0 0.0
2017-Sep-13 04:30N 36°08' W 005°26'0 0.0
2017-Sep-13 04:00N 36°08' W 005°26'0 0.0
2017-Sep-13 03:24N 36°08' W 005°26'0 0.0
2017-Sep-13 02:57N 36°08' W 005°26'0 0.0
2017-Sep-13 01:25N 36°08' W 005°26'0 0.0
2017-Sep-13 00:54N 36°08' W 005°26'0 0.0
2017-Sep-13 00:30N 36°08' W 005°26'0 0.0
2017-Sep-13 00:00N 36°08' W 005°26'0 0.0
2017-Sep-12 23:30N 36°08' W 005°26'0 0.0
2017-Sep-12 22:49N 36°08' W 005°26'3 6.3
2017-Sep-12 22:18N 36°05' W 005°24'621.5
2017-Sep-12 22:01N 35°59' W 005°25'5 1.8
2017-Sep-12 19:18N 35°56' W 005°30'1019.7
2017-Sep-12 18:47N 36°05' W 005°24'414.4
2017-Sep-12 18:30N 36°09' W 005°26'1 1.1
2017-Sep-12 17:50N 36°08' W 005°26'0 0.0
2017-Sep-12 17:31N 36°08' W 005°26'0 0.1
2017-Sep-12 16:20N 36°08' W 005°26'2 7.2
2017-Sep-12 16:01N 36°07' W 005°24'11 4.1
2017-Sep-12 13:14N 35°56' W 005°30'519.7
2017-Sep-12 13:00N 35°60' W 005°26'9 3.2
2017-Sep-12 10:11N 36°09' W 005°25'317.5
2017-Sep-12 10:00N 36°06' W 005°23'11 3.7
2017-Sep-12 07:00N 35°56' W 005°30'1020.8
2017-Sep-12 06:31N 36°05' W 005°24'4 4.4
2017-Sep-12 05:41N 36°08' W 005°26'0 0.0
2017-Sep-12 05:06N 36°08' W 005°26'0 0.1
2017-Sep-12 05:00N 36°08' W 005°26'0 0.0
2017-Sep-12 04:30N 36°08' W 005°26'0 0.0
2017-Sep-12 03:57N 36°08' W 005°26'0 0.0
2017-Sep-12 03:30N 36°08' W 005°26'0 0.0
2017-Sep-12 03:00N 36°08' W 005°26'0 0.0
2017-Sep-12 02:30N 36°08' W 005°26'0 0.1
2017-Sep-12 02:00N 36°08' W 005°26'611.5
2017-Sep-12 01:31N 36°02' W 005°24'11 3.5
2017-Sep-11 22:24N 35°53' W 005°31'3 6.6
2017-Sep-11 21:58N 35°56' W 005°30'919.5
2017-Sep-11 21:30N 36°04' W 005°24'4 8.8
2017-Sep-11 21:00N 36°08' W 005°26'0 0.0
2017-Sep-11 20:30N 36°08' W 005°26'0 0.0
2017-Sep-11 20:00N 36°08' W 005°26'0 0.1
2017-Sep-11 19:28N 36°08' W 005°26'5 9.7
2017-Sep-11 19:01N 36°04' W 005°23'9 3.6
2017-Sep-11 16:27N 35°56' W 005°30'1022.0
2017-Sep-11 15:59N 36°05' W 005°24'4 3.5
2017-Sep-11 14:58N 36°08' W 005°26'0 0.3
2017-Sep-11 14:28N 36°08' W 005°26'816.5
2017-Sep-11 14:01N 36°05' W 005°17'  

Dump ship's entire track history